Time;durP1;ratioP1;P1;durP2;ratioP2;P2;SDS_P1;SDS_P2;PMS_P1;PMS_P2;Temp;Humidity;BMP_temperature;BMP_pressure;BME280_temperature;BME280_humidity;BME280_pressure;Samples;Min_cycle;Max_cycle;Signal;HPM_P1;HPM_P2
2023/06/16 00:07:31;;;;;;;;;8.75;8.25;;;;;26.53;30.14;100972.22;4979362;28;45735;-79
2023/06/16 00:09:56;;;;;;;;;10.75;9.75;;;;;26.53;30.06;100991.03;4979965;28;45640;-78
2023/06/16 00:12:21;;;;;;;;;10.25;10.00;;;;;26.29;29.90;100952.09;4983444;28;45596;-79
2023/06/16 00:14:47;;;;;;;;;10.50;10.25;;;;;26.51;30.04;100992.25;4986056;28;45639;-79
2023/06/16 00:17:13;;;;;;;;;10.00;9.00;;;;;26.48;30.20;100989.97;4981878;28;45686;-79
2023/06/16 00:19:39;;;;;;;;;11.00;10.50;;;;;26.44;30.66;100986.06;4976128;28;45662;-78
2023/06/16 00:22:06;;;;;;;;;10.75;10.00;;;;;26.43;30.18;100985.22;4975208;28;45840;-78
2023/06/16 00:24:32;;;;;;;;;10.00;10.00;;;;;26.40;30.40;100982.94;4975157;28;46521;-79
2023/06/16 00:26:58;;;;;;;;;8.50;8.50;;;;;26.36;30.42;100976.31;4975358;28;45926;-79
2023/06/16 00:29:23;;;;;;;;;11.00;10.25;;;;;26.18;30.47;100952.66;4975450;28;45641;-79
2023/06/16 00:31:49;;;;;;;;;10.00;10.00;;;;;26.31;30.48;100981.47;4975317;28;45643;-79
2023/06/16 00:34:14;;;;;;;;;9.50;9.25;;;;;26.26;30.44;100979.38;4975628;28;45533;-79
2023/06/16 00:36:39;;;;;;;;;9.00;9.00;;;;;26.24;30.31;100972.53;4975239;28;45935;-79
2023/06/16 00:39:05;;;;;;;;;11.00;9.00;;;;;26.23;30.77;100973.59;4975303;28;45537;-79
2023/06/16 00:41:30;;;;;;;;;8.75;8.00;;;;;26.26;30.53;100986.63;4975212;28;45740;-79
2023/06/16 00:43:56;;;;;;;;;8.75;8.00;;;;;26.26;30.84;100981.25;4975373;28;46577;-79
2023/06/16 00:46:27;;;;;;;;;8.25;8.25;;;;;26.23;30.47;100985.19;4974986;28;45701;-79
2023/06/16 00:52:15;;;;;;;;;8.75;8.75;;;;;26.18;30.48;100981.41;4966489;28;46476;-79
2023/06/16 00:54:42;;;;;;;;;7.50;7.50;;;;;26.15;30.75;100987.16;4974829;28;46638;-79
2023/06/16 00:57:08;;;;;;;;;9.75;9.00;;;;;26.06;30.52;100977.63;4974590;28;45846;-78
2023/06/16 00:59:34;;;;;;;;;8.00;8.00;;;;;25.98;30.95;100978.63;4974528;28;45732;-78
2023/06/16 01:01:59;;;;;;;;;7.50;7.50;;;;;26.01;31.01;100983.63;4957091;28;46020;-79
2023/06/16 01:04:26;;;;;;;;;9.00;9.00;;;;;25.93;31.20;100978.41;4974467;28;45596;-80
2023/06/16 01:07:00;;;;;;;;;10.25;10.25;;;;;25.93;31.18;100991.84;4974039;28;46343;-79
2023/06/16 01:09:42;;;;;;;;;11.00;9.75;;;;;25.89;31.43;100977.97;4974410;28;45707;-79
2023/06/16 01:12:13;;;;;;;;;12.00;12.00;;;;;25.86;31.62;100983.72;4974600;28;45620;-78
2023/06/16 01:15:23;;;;;;;;;9.50;9.25;;;;;25.82;31.42;100992.41;4974480;28;46542;-78
2023/06/16 01:17:54;;;;;;;;;11.75;10.50;;;;;25.76;31.69;100974.38;4894773;28;45690;-78
2023/06/16 01:20:46;;;;;;;;;8.25;8.25;;;;;25.70;31.73;100976.00;4895311;29;45727;-78
2023/06/16 01:23:25;;;;;;;;;12.25;11.75;;;;;25.64;31.71;100982.16;4895463;29;45663;-78
2023/06/16 01:25:55;;;;;;;;;10.00;10.00;;;;;25.59;31.90;100986.50;4895309;29;45687;-78
2023/06/16 01:28:24;;;;;;;;;12.75;12.00;;;;;25.54;32.12;100980.84;4894884;29;47100;-78
2023/06/16 01:30:50;;;;;;;;;12.75;12.25;;;;;25.43;32.59;100971.50;4895120;29;45591;-78
2023/06/16 01:33:20;;;;;;;;;12.00;11.75;;;;;25.38;32.65;100969.41;4895349;29;45513;-77
2023/06/16 01:35:46;;;;;;;;;13.00;12.00;;;;;25.40;32.52;100966.53;4895191;29;45690;-77
2023/06/16 01:38:13;;;;;;;;;10.50;10.25;;;;;25.34;32.97;100972.69;4895117;29;46116;-78
2023/06/16 01:40:41;;;;;;;;;11.50;11.50;;;;;25.25;32.99;100961.28;4895132;29;45897;-78
2023/06/16 01:43:07;;;;;;;;;12.00;11.00;;;;;25.23;33.17;100973.22;4895200;29;45586;-79
2023/06/16 01:45:34;;;;;;;;;9.75;9.75;;;;;25.18;33.59;100970.28;4895073;29;45712;-78
2023/06/16 01:48:00;;;;;;;;;11.25;10.50;;;;;25.11;33.28;100969.41;4894697;29;46109;-79
2023/06/16 01:50:25;;;;;;;;;11.00;9.50;;;;;25.03;33.38;100970.41;4894942;29;46070;-79
2023/06/16 01:52:50;;;;;;;;;9.75;9.00;;;;;24.96;33.83;100964.97;4894906;29;45961;-78
2023/06/16 01:55:16;;;;;;;;;11.00;10.00;;;;;24.89;33.75;100966.75;4968802;28;46281;-79
2023/06/16 01:57:41;;;;;;;;;11.25;10.25;;;;;24.88;33.73;100975.84;4973937;28;45696;-79
2023/06/16 02:00:15;;;;;;;;;9.25;9.25;;;;;24.80;33.97;100975.94;4973940;28;45516;-78
2023/06/16 02:02:47;;;;;;;;;12.25;12.00;;;;;24.83;33.96;100982.78;4974054;28;45866;-80
2023/06/16 02:05:16;;;;;;;;;11.25;11.00;;;;;24.79;33.91;100981.47;4973770;28;46500;-79
2023/06/16 02:07:45;;;;;;;;;10.00;10.00;;;;;24.76;34.08;100974.66;4973593;28;45980;-79
2023/06/16 02:10:12;;;;;;;;;10.00;9.00;;;;;24.71;33.56;100974.41;4973262;28;45746;-79
2023/06/16 02:12:38;;;;;;;;;10.75;10.00;;;;;24.66;33.80;100966.13;4973741;28;45605;-78
2023/06/16 02:15:04;;;;;;;;;10.50;8.75;;;;;24.74;34.33;100979.38;4973738;28;46471;-78
2023/06/16 02:17:29;;;;;;;;;12.00;10.75;;;;;24.68;34.05;100980.16;4973440;28;45955;-79
2023/06/16 02:23:16;;;;;;;;;12.50;11.00;;;;;24.69;34.41;100987.16;4973746;28;45643;-78
2023/06/16 02:25:42;;;;;;;;;10.00;10.00;;;;;24.70;34.05;100985.31;4973584;28;46501;-79
2023/06/16 02:28:07;;;;;;;;;11.25;11.00;;;;;24.62;33.90;100979.06;4972772;28;45653;-78
2023/06/16 02:30:32;;;;;;;;;13.00;13.00;;;;;24.69;34.53;100979.13;4973379;28;45617;-79
2023/06/16 02:32:58;;;;;;;;;16.50;16.00;;;;;24.66;35.16;100982.22;4973690;28;45478;-78
2023/06/16 02:35:24;;;;;;;;;16.00;16.00;;;;;24.58;36.05;100975.13;4973443;28;45592;-78
2023/06/16 02:37:53;;;;;;;;;17.00;17.00;;;;;24.47;35.56;100969.41;4973491;28;45579;-78
2023/06/16 02:40:19;;;;;;;;;15.25;15.25;;;;;24.43;36.19;100969.00;4973414;28;45683;-78
2023/06/16 02:42:45;;;;;;;;;15.25;15.25;;;;;24.42;35.65;100966.50;4973746;28;45510;-78
2023/06/16 02:45:10;;;;;;;;;17.25;15.00;;;;;24.46;36.21;100976.63;4973259;28;45593;-77
2023/06/16 02:47:36;;;;;;;;;14.50;14.00;;;;;24.44;35.68;100964.47;4973411;28;45625;-79
2023/06/16 02:53:24;;;;;;;;;17.00;16.00;;;;;24.43;36.33;100968.16;4962776;28;45672;-79
2023/06/16 02:55:51;;;;;;;;;17.75;17.25;;;;;24.43;36.96;100971.66;4973381;28;46902;-79
2023/06/16 02:58:17;;;;;;;;;17.00;16.25;;;;;24.36;36.45;100970.75;4972623;28;47137;-77
2023/06/16 03:00:43;;;;;;;;;18.75;18.25;;;;;24.31;36.82;100975.03;4973066;28;45808;-76
2023/06/16 03:03:09;;;;;;;;;17.00;16.50;;;;;24.24;37.38;100978.44;4973295;28;45769;-78
2023/06/16 03:08:59;;;;;;;;;15.50;13.75;;;;;24.17;37.36;100974.03;4972603;28;45648;-76
2023/06/16 03:11:24;;;;;;;;;17.25;15.25;;;;;24.14;37.36;100977.06;4972740;28;45728;-80
2023/06/16 03:13:49;;;;;;;;;16.50;16.00;;;;;24.08;37.33;100967.94;4973206;28;45883;-79
2023/06/16 03:16:16;;;;;;;;;15.25;14.25;;;;;24.03;37.38;100965.00;4972903;28;46583;-78
2023/06/16 03:18:42;;;;;;;;;16.75;16.50;;;;;24.06;38.01;100971.81;4972734;28;45963;-78
2023/06/16 03:21:08;;;;;;;;;14.50;13.25;;;;;24.04;36.67;100974.69;4972871;28;45686;-78
2023/06/16 03:23:33;;;;;;;;;10.25;10.25;;;;;23.98;36.11;100970.06;4972981;28;45577;-77
2023/06/16 03:25:59;;;;;;;;;13.75;13.00;;;;;24.03;36.63;100982.91;4972876;28;46652;-78
2023/06/16 03:28:25;;;;;;;;;13.25;11.00;;;;;24.01;36.41;100984.94;4972703;28;46155;-79
2023/06/16 03:30:52;;;;;;;;;11.25;11.00;;;;;23.93;36.41;100980.53;4972459;28;45683;-78
2023/06/16 03:33:18;;;;;;;;;12.00;11.25;;;;;23.94;36.48;100982.19;4973025;28;45772;-78
2023/06/16 03:39:05;;;;;;;;;11.25;10.25;;;;;23.73;36.24;100966.88;4972686;28;45650;-78
2023/06/16 03:41:34;;;;;;;;;11.00;10.00;;;;;23.79;36.56;100976.03;4975871;28;45633;-78
2023/06/16 03:44:00;;;;;;;;;12.00;10.75;;;;;23.76;36.01;100987.09;4976067;28;45698;-79
2023/06/16 03:46:27;;;;;;;;;14.25;11.50;;;;;23.78;35.94;100988.56;4975877;28;46748;-78
2023/06/16 03:48:52;;;;;;;;;10.25;10.25;;;;;23.77;35.87;100986.06;4975746;28;47297;-79
2023/06/16 03:51:17;;;;;;;;;10.75;10.00;;;;;23.65;36.51;100963.47;4975739;28;45631;-78
2023/06/16 03:53:43;;;;;;;;;10.00;10.00;;;;;23.77;36.01;100986.91;4975726;28;45776;-78
2023/06/16 03:56:08;;;;;;;;;8.75;8.50;;;;;23.77;35.92;100978.88;4975497;28;46795;-78
2023/06/16 03:58:34;;;;;;;;;12.00;11.50;;;;;23.66;35.88;100955.25;4975442;28;45680;-78
2023/06/16 04:00:59;;;;;;;;;11.50;11.25;;;;;23.67;36.23;100964.13;4975428;28;45673;-78
2023/06/16 04:03:26;;;;;;;;;11.00;11.00;;;;;23.61;36.58;100967.53;4975893;28;45811;-78
2023/06/16 04:09:15;;;;;;;;;11.50;10.75;;;;;23.70;36.24;100991.31;4975269;28;46078;-77
2023/06/16 04:11:41;;;;;;;;;10.75;10.50;;;;;23.61;36.58;100970.22;4975854;28;45749;-78
2023/06/16 04:14:09;;;;;;;;;11.00;11.00;;;;;23.56;36.68;100965.41;4975921;28;45696;-79
2023/06/16 04:16:34;;;;;;;;;13.75;12.00;;;;;23.70;36.83;100996.69;4975483;28;45929;-78
2023/06/16 04:19:02;;;;;;;;;13.25;11.25;;;;;23.67;36.58;100990.88;4975222;28;45682;-78
2023/06/16 04:24:49;;;;;;;;;16.00;16.00;;;;;23.66;37.26;100997.25;4975217;28;45649;-77
2023/06/16 04:27:15;;;;;;;;;14.25;13.50;;;;;23.61;38.25;101000.47;4974895;28;46214;-76
2023/06/16 04:29:42;;;;;;;;;15.00;15.00;;;;;23.57;38.07;101001.03;4974912;28;46054;-80
2023/06/16 04:32:13;;;;;;;;;14.75;14.75;;;;;23.52;38.47;100995.41;4974973;28;45602;-78
2023/06/16 04:34:40;;;;;;;;;10.00;9.00;;;;;23.49;38.55;100996.56;4975215;28;45609;-78
2023/06/16 04:37:06;;;;;;;;;15.75;14.00;;;;;23.39;38.66;100983.44;4975108;28;46913;-78
2023/06/16 04:39:31;;;;;;;;;13.75;13.50;;;;;23.37;39.44;100992.69;4975217;28;45906;-78
2023/06/16 04:41:57;;;;;;;;;17.25;16.75;;;;;23.36;38.96;101002.56;4974813;28;45694;-79
2023/06/16 04:44:23;;;;;;;;;13.75;13.75;;;;;23.34;39.60;100996.53;4975425;28;45741;-79
2023/06/16 04:46:48;;;;;;;;;15.25;14.50;;;;;23.31;39.77;101004.09;4974810;28;45696;-78
2023/06/16 04:49:14;;;;;;;;;14.75;14.50;;;;;23.30;39.29;101002.44;4974823;28;45731;-79
2023/06/16 04:55:01;;;;;;;;;14.25;14.25;;;;;23.28;39.26;100994.59;4963503;28;45889;-76
2023/06/16 04:57:26;;;;;;;;;18.75;16.75;;;;;23.28;39.44;101007.97;4974179;28;45629;-76
2023/06/16 04:59:51;;;;;;;;;18.25;16.50;;;;;23.20;40.02;100988.50;4974254;28;46045;-76
2023/06/16 05:02:17;;;;;;;;;16.25;16.25;;;;;23.22;39.73;101000.66;4974378;28;45693;-78
2023/06/16 05:04:43;;;;;;;;;16.00;14.75;;;;;23.20;39.88;101000.03;4974327;28;45543;-77
2023/06/16 05:07:10;;;;;;;;;17.75;16.75;;;;;23.19;40.32;100998.38;4973748;28;46324;-75
2023/06/16 05:09:36;;;;;;;;;17.50;15.50;;;;;23.20;40.37;100997.38;4956391;28;47791;-74
2023/06/16 05:12:02;;;;;;;;;17.50;15.50;;;;;23.05;40.13;100977.75;4974357;28;45544;-76
2023/06/16 05:14:27;;;;;;;;;19.00;18.25;;;;;23.17;40.35;100988.84;4972835;28;46001;-77
2023/06/16 05:16:52;;;;;;;;;17.00;16.25;;;;;23.22;40.22;100999.81;4974003;28;47247;-77
2023/06/16 05:19:18;;;;;;;;;14.50;13.50;;;;;23.18;39.80;100990.50;4973820;28;46353;-75
2023/06/16 05:25:05;;;;;;;;;16.00;15.00;;;;;23.25;39.29;100988.78;4974068;28;45716;-75
2023/06/16 05:27:32;;;;;;;;;20.25;14.50;;;;;23.31;39.54;100993.41;4956138;28;47370;-76
2023/06/16 05:29:57;;;;;;;;;16.25;13.75;;;;;23.34;39.33;100990.34;4973997;28;45851;-75
2023/06/16 05:32:23;;;;;;;;;14.25;13.25;;;;;23.36;39.12;100986.50;4973800;28;45736;-75
2023/06/16 05:34:50;;;;;;;;;17.25;15.25;;;;;23.33;39.54;100980.66;4974367;28;45702;-78
2023/06/16 05:40:37;;;;;;;;;17.50;15.75;;;;;23.42;38.92;100984.94;4973689;28;46056;-77
2023/06/16 05:43:02;;;;;;;;;14.00;14.00;;;;;23.51;38.52;100991.88;4973677;28;45638;-76
2023/06/16 05:45:28;;;;;;;;;13.50;13.50;;;;;23.54;38.64;100990.69;4974239;28;45521;-75
2023/06/16 05:47:53;;;;;;;;;14.75;14.00;;;;;23.56;38.51;100984.13;4973443;28;47578;-75
2023/06/16 05:50:19;;;;;;;;;14.75;13.75;;;;;23.58;38.23;100990.16;4973345;28;46331;-76
2023/06/16 05:52:44;;;;;;;;;14.75;14.75;;;;;23.62;38.70;100987.94;4973693;28;45501;-75
2023/06/16 05:55:10;;;;;;;;;14.75;14.25;;;;;23.65;38.40;100984.88;4972285;28;45890;-77
2023/06/16 05:57:37;;;;;;;;;13.75;12.75;;;;;23.67;38.50;100983.69;4973416;28;46458;-76
2023/06/16 06:00:04;;;;;;;;;17.25;15.25;;;;;23.60;38.84;100955.16;4973219;28;46121;-76
2023/06/16 06:02:30;;;;;;;;;14.50;13.50;;;;;23.71;38.27;100976.09;4972548;28;45878;-75
2023/06/16 06:04:55;;;;;;;;;12.50;12.50;;;;;23.74;38.45;100971.22;4973312;28;45908;-76
2023/06/16 06:10:42;;;;;;;;;15.50;14.25;;;;;23.89;37.62;100984.59;4973137;28;45726;-81
2023/06/16 06:13:08;;;;;;;;;15.00;13.75;;;;;23.77;37.75;100954.78;4974067;28;45829;-79
2023/06/16 06:15:34;;;;;;;;;15.50;14.50;;;;;23.91;37.78;100969.19;4973487;28;45624;-78
2023/06/16 06:18:01;;;;;;;;;14.50;14.25;;;;;23.94;37.05;100973.31;4973157;28;46375;-76
2023/06/16 06:20:27;;;;;;;;;14.25;13.25;;;;;23.95;37.21;100978.50;4972855;28;46450;-80
2023/06/16 06:26:20;;;;;;;;;14.50;13.25;;;;;24.15;36.66;101000.97;4973266;28;45684;-78
2023/06/16 06:28:46;;;;;;;;;15.50;14.75;;;;;24.16;36.55;101004.50;4972677;28;45642;-77
2023/06/16 06:31:11;;;;;;;;;16.00;14.00;;;;;24.16;36.54;100999.97;4972740;28;46054;-77
2023/06/16 06:33:37;;;;;;;;;13.50;12.50;;;;;24.26;36.66;101002.38;4973506;28;45777;-79
2023/06/16 06:36:02;;;;;;;;;15.50;13.50;;;;;24.23;36.35;100998.25;4973221;28;45513;-80
2023/06/16 06:38:27;;;;;;;;;16.00;14.75;;;;;24.33;36.38;101014.00;4972977;28;46931;-80
2023/06/16 06:40:53;;;;;;;;;14.00;13.00;;;;;24.33;36.45;101016.69;4972961;28;46085;-79
2023/06/16 06:43:18;;;;;;;;;16.50;15.00;;;;;24.36;36.65;101013.63;4973179;28;46325;-78
2023/06/16 06:45:45;;;;;;;;;15.75;14.25;;;;;24.37;36.63;101011.78;4973295;28;45709;-77
2023/06/16 06:48:10;;;;;;;;;15.50;14.75;;;;;24.23;36.56;100979.50;4972942;28;45626;-77
2023/06/16 06:50:36;;;;;;;;;15.00;15.00;;;;;24.40;36.43;101006.84;4972963;28;46487;-79
2023/06/16 06:56:23;;;;;;;;;16.25;15.00;;;;;24.52;36.57;101012.53;4961575;28;45833;-78
2023/06/16 06:58:49;;;;;;;;;15.00;14.00;;;;;24.45;36.65;101009.00;4973054;28;45563;-79
2023/06/16 07:01:14;;;;;;;;;16.75;16.00;;;;;24.57;36.04;101023.53;4971088;28;47163;-79
2023/06/16 07:03:40;;;;;;;;;18.25;15.50;;;;;24.64;35.78;101041.34;4972938;28;45660;-78
2023/06/16 07:12:31;;;;;;;;;16.00;15.25;;;;;24.65;36.21;101042.19;4972467;28;46111;-79
2023/06/16 07:14:56;;;;;;;;;17.00;16.00;;;;;24.66;35.83;101038.50;4957209;28;45749;-80
2023/06/16 07:17:22;;;;;;;;;19.75;15.75;;;;;24.68;36.01;101044.47;4976525;28;45553;-80
2023/06/16 07:19:47;;;;;;;;;20.00;18.25;;;;;24.80;35.80;101055.53;4976132;28;46454;-79
2023/06/16 07:22:12;;;;;;;;;16.25;15.50;;;;;24.82;35.88;101057.00;4975985;28;45989;-80
2023/06/16 07:24:38;;;;;;;;;16.00;15.25;;;;;24.85;35.32;101053.09;4976364;28;45714;-80
2023/06/16 07:27:04;;;;;;;;;17.75;15.50;;;;;24.87;35.14;101059.94;4976137;28;45704;-79
2023/06/16 07:29:30;;;;;;;;;18.00;17.00;;;;;24.90;35.15;101054.22;4976075;28;45584;-80
2023/06/16 07:31:55;;;;;;;;;19.00;15.25;;;;;24.94;35.16;101052.81;4975962;28;45939;-78
2023/06/16 07:34:21;;;;;;;;;17.25;15.50;;;;;24.96;35.39;101056.13;4976100;28;45644;-79
2023/06/16 07:36:46;;;;;;;;;16.00;15.50;;;;;24.86;35.25;101030.63;4977323;28;45835;-78
2023/06/16 07:39:11;;;;;;;;;17.75;16.75;;;;;25.01;34.90;101056.38;4976887;28;45546;-77
2023/06/16 07:41:37;;;;;;;;;17.25;17.00;;;;;24.92;34.63;101029.91;4978323;28;45521;-78
2023/06/16 07:44:05;;;;;;;;;18.00;15.75;;;;;25.08;34.80;101049.25;4978690;28;45728;-78
2023/06/16 07:46:32;;;;;;;;;16.25;15.50;;;;;25.12;34.55;101052.34;4980292;28;45855;-77
2023/06/16 07:48:57;;;;;;;;;17.50;16.50;;;;;25.16;34.31;101061.66;4977217;28;45530;-79
2023/06/16 07:51:23;;;;;;;;;17.50;16.25;;;;;25.18;34.00;101065.00;4957780;28;48433;-80
2023/06/16 07:57:10;;;;;;;;;17.50;17.25;;;;;25.25;34.00;101055.16;4967900;28;45872;-79
2023/06/16 07:59:35;;;;;;;;;16.50;15.00;;;;;25.27;33.73;101057.63;4975575;28;46424;-79
2023/06/16 08:02:04;;;;;;;;;18.75;17.50;;;;;25.29;33.78;101052.91;4975173;28;46024;-78
2023/06/16 08:04:30;;;;;;;;;18.25;16.25;;;;;25.36;33.65;101051.97;4975062;28;45797;-80
2023/06/16 08:06:57;;;;;;;;;19.75;18.50;;;;;25.31;33.16;101035.63;4975561;28;45576;-81
2023/06/16 08:09:23;;;;;;;;;21.75;18.25;;;;;25.44;33.13;101057.16;4974895;28;46463;-79
2023/06/16 08:11:49;;;;;;;;;16.25;15.50;;;;;25.49;33.18;101048.53;4975610;28;46495;-79
2023/06/16 08:14:15;;;;;;;;;16.00;13.75;;;;;25.47;33.23;101042.53;4975974;28;45596;-79
2023/06/16 08:16:40;;;;;;;;;18.00;17.00;;;;;25.58;33.12;101049.25;4976222;28;45807;-81
2023/06/16 08:19:06;;;;;;;;;16.50;15.00;;;;;25.49;32.32;101024.38;4975694;28;45619;-79
2023/06/16 08:21:32;;;;;;;;;16.25;15.25;;;;;25.62;32.40;101035.25;4975672;28;46450;-79
2023/06/16 08:27:20;;;;;;;;;14.00;13.00;;;;;25.66;31.88;101031.13;4975047;28;45805;-80
2023/06/16 08:29:47;;;;;;;;;14.00;12.25;;;;;25.77;31.45;101048.53;4975148;28;47503;-80
2023/06/16 08:32:13;;;;;;;;;15.75;12.50;;;;;25.77;31.40;101037.81;4974934;28;45791;-81
2023/06/16 08:34:38;;;;;;;;;17.50;15.00;;;;;25.84;31.84;101047.56;4975028;28;45577;-81
2023/06/16 08:37:04;;;;;;;;;16.25;15.75;;;;;25.78;32.06;101018.00;4957041;28;45846;-81
2023/06/16 08:39:30;;;;;;;;;17.00;15.25;;;;;25.94;31.64;101032.94;4974624;28;45610;-80
2023/06/16 08:41:58;;;;;;;;;15.50;14.00;;;;;25.94;30.70;101031.09;4974837;28;45605;-80
2023/06/16 08:44:24;;;;;;;;;13.25;13.00;;;;;25.98;31.01;101028.81;4957051;28;45530;-81
2023/06/16 08:46:50;;;;;;;;;14.00;13.25;;;;;25.79;31.04;100996.31;4974769;28;45822;-80
2023/06/16 08:49:17;;;;;;;;;13.00;12.00;;;;;26.05;30.93;101035.06;4974500;28;45805;-81
2023/06/16 08:51:50;;;;;;;;;12.00;12.00;;;;;26.09;29.71;101039.00;4974455;28;46640;-81
2023/06/16 08:57:46;;;;;;;;;12.00;12.00;;;;;26.13;29.90;101019.59;4971641;28;45805;-80
2023/06/16 09:00:13;;;;;;;;;14.25;14.00;;;;;26.19;29.99;101034.09;4974454;28;45627;-80
2023/06/16 09:02:41;;;;;;;;;15.50;14.00;;;;;26.19;29.68;101024.16;4974411;28;46960;-78
2023/06/16 09:05:08;;;;;;;;;13.00;11.25;;;;;26.26;29.79;101024.22;4956810;28;45663;-79
2023/06/16 09:07:35;;;;;;;;;14.50;13.50;;;;;26.28;29.56;101023.03;4974265;28;45678;-79
2023/06/16 09:10:00;;;;;;;;;14.75;12.50;;;;;26.33;29.75;101024.25;4973777;28;46287;-79
2023/06/16 09:12:27;;;;;;;;;12.75;12.75;;;;;26.38;29.37;101028.00;4974492;28;46145;-79
2023/06/16 09:14:52;;;;;;;;;13.75;10.50;;;;;26.35;28.96;101016.81;4974440;28;45680;-79
2023/06/16 09:17:27;;;;;;;;;13.50;12.50;;;;;26.47;29.32;101029.47;4974466;28;45912;-80
2023/06/16 09:19:53;;;;;;;;;12.25;11.00;;;;;26.51;28.62;101022.66;4956503;28;46769;-79
2023/06/16 09:22:25;;;;;;;;;11.50;11.00;;;;;26.56;29.33;101022.88;4974199;28;45620;-80
2023/06/16 09:28:13;;;;;;;;;14.00;12.00;;;;;26.61;28.26;101017.69;4974081;28;45572;-79
2023/06/16 09:30:38;;;;;;;;;10.25;9.75;;;;;26.70;28.35;101019.19;4973912;28;46340;-80
2023/06/16 09:33:06;;;;;;;;;10.75;10.75;;;;;26.66;27.37;101006.38;4974008;28;45779;-79
2023/06/16 09:35:32;;;;;;;;;12.50;10.75;;;;;26.72;27.41;101010.94;4973923;28;45761;-79
2023/06/16 09:38:00;;;;;;;;;12.25;11.25;;;;;26.80;27.65;101017.94;4974075;28;45738;-78
2023/06/16 09:40:33;;;;;;;;;10.50;9.50;;;;;26.79;27.68;101008.22;4974047;28;46649;-79
2023/06/16 09:43:00;;;;;;;;;11.50;10.50;;;;;26.80;27.02;101013.41;4973961;28;45890;-80
2023/06/16 09:45:30;;;;;;;;;11.25;10.50;;;;;26.81;26.85;101017.75;4973706;28;45687;-80
2023/06/16 09:47:58;;;;;;;;;10.50;10.00;;;;;26.88;27.42;101015.13;4973891;28;45640;-80
2023/06/16 09:50:26;;;;;;;;;12.50;12.00;;;;;26.85;27.38;101000.16;4973515;28;45577;-80
2023/06/16 09:52:54;;;;;;;;;13.00;11.00;;;;;26.93;27.48;101015.31;4973752;28;45962;-79
2023/06/16 09:55:20;;;;;;;;;10.50;10.50;;;;;26.98;27.64;101013.69;4973852;28;46101;-77
2023/06/16 09:57:47;;;;;;;;;11.00;10.25;;;;;27.05;27.23;101014.47;4973513;28;45552;-80
2023/06/16 10:00:16;;;;;;;;;7.75;7.75;;;;;27.10;27.54;101012.00;4973269;28;45749;-81
2023/06/16 10:02:50;;;;;;;;;11.00;10.75;;;;;27.15;26.14;101014.09;4973389;28;45976;-79
2023/06/16 10:05:18;;;;;;;;;11.25;10.75;;;;;27.18;26.73;101018.22;4973462;28;45531;-80
2023/06/16 10:14:01;;;;;;;;;11.00;10.75;;;;;27.29;27.13;101004.13;4973385;28;45840;-79
2023/06/16 10:16:29;;;;;;;;;13.50;11.75;;;;;27.31;27.08;101002.91;4973171;28;45723;-80
2023/06/16 10:19:00;;;;;;;;;14.25;13.00;;;;;27.36;26.94;100997.72;4973452;28;45716;-78
2023/06/16 10:21:26;;;;;;;;;11.75;11.25;;;;;27.44;26.72;101005.56;4973233;28;46684;-79
2023/06/16 10:23:52;;;;;;;;;12.00;11.25;;;;;27.50;26.61;100998.53;4973132;28;46007;-80
2023/06/16 10:26:18;;;;;;;;;12.25;12.00;;;;;27.32;26.45;100974.94;4973237;28;45647;-78
2023/06/16 10:28:45;;;;;;;;;10.75;10.00;;;;;27.44;26.26;100984.03;4973366;28;45622;-80
2023/06/16 10:31:12;;;;;;;;;12.25;12.25;;;;;27.63;26.15;101003.09;4972838;28;45540;-81
2023/06/16 10:33:54;;;;;;;;;13.50;13.50;;;;;27.65;26.52;100995.59;4973266;28;45947;-78
2023/06/16 10:36:39;;;;;;;;;10.75;10.75;;;;;27.65;26.31;100990.22;4955358;28;45722;-78
2023/06/16 10:39:12;;;;;;;;;15.00;13.25;;;;;27.74;26.14;101000.56;4972945;28;45824;-80
2023/06/16 10:42:07;;;;;;;;;11.00;11.00;;;;;27.81;25.89;101000.53;4973221;28;46187;-81
2023/06/16 10:44:33;;;;;;;;;14.75;13.00;;;;;27.81;26.33;100992.44;4971218;28;46538;-79
2023/06/16 10:47:07;;;;;;;;;12.50;12.50;;;;;27.91;25.95;101001.72;4972980;28;45650;-79
2023/06/16 10:49:42;;;;;;;;;12.50;11.50;;;;;27.84;25.57;100989.34;4972573;28;45694;-79
2023/06/16 10:52:08;;;;;;;;;15.00;15.00;;;;;27.97;25.12;100995.50;4972758;28;46626;-79
2023/06/16 10:54:36;;;;;;;;;12.50;12.50;;;;;28.01;25.28;100993.22;4972839;28;46165;-81
2023/06/16 10:57:03;;;;;;;;;13.25;11.25;;;;;28.06;25.76;100990.72;4972563;28;45683;-79
2023/06/16 10:59:29;;;;;;;;;13.00;12.75;;;;;28.05;25.15;100978.28;4954987;28;45764;-81
2023/06/16 11:01:57;;;;;;;;;12.50;12.50;;;;;28.17;24.95;100994.63;4972591;28;46852;-80
2023/06/16 11:04:22;;;;;;;;;13.50;12.25;;;;;28.13;24.81;100980.75;4972653;28;46004;-76
2023/06/16 11:07:08;;;;;;;;;12.25;12.00;;;;;28.17;25.20;100984.69;4972663;28;45873;-77
2023/06/16 11:09:35;;;;;;;;;12.25;11.50;;;;;28.22;25.02;100989.41;4972318;28;45562;-79
2023/06/16 11:12:01;;;;;;;;;13.00;12.25;;;;;28.19;24.90;100982.59;4954822;28;47924;-78
2023/06/16 11:14:27;;;;;;;;;14.00;13.25;;;;;28.24;24.65;100982.75;4972649;28;46416;-79
2023/06/16 11:16:53;;;;;;;;;13.25;13.25;;;;;28.19;24.48;100974.50;4972551;28;45852;-77
2023/06/16 11:19:19;;;;;;;;;14.25;13.00;;;;;28.26;24.63;100994.16;4955089;28;45649;-78
2023/06/16 11:21:45;;;;;;;;;12.75;11.25;;;;;28.27;24.34;100982.34;4972383;28;45822;-80
2023/06/16 11:24:11;;;;;;;;;13.50;13.25;;;;;28.27;23.90;100985.03;4972546;28;45655;-78
2023/06/16 11:26:37;;;;;;;;;12.75;12.75;;;;;28.25;24.00;100995.19;4972384;28;45648;-78
2023/06/16 11:29:08;;;;;;;;;13.25;13.25;;;;;28.27;24.21;100987.75;4972489;28;45749;-79
2023/06/16 11:31:38;;;;;;;;;14.50;13.50;;;;;28.17;24.33;100968.50;4972220;28;45941;-78
2023/06/16 11:34:04;;;;;;;;;13.75;13.00;;;;;28.31;24.28;100990.81;4972344;28;45983;-78
2023/06/16 11:36:32;;;;;;;;;14.00;13.75;;;;;28.31;24.86;100978.16;4972113;28;45708;-78
2023/06/16 11:39:04;;;;;;;;;14.25;13.75;;;;;28.34;24.36;100977.72;4954425;28;45594;-80
2023/06/16 11:41:32;;;;;;;;;15.00;13.25;;;;;28.41;24.70;100975.00;4972085;28;45596;-79
2023/06/16 11:43:58;;;;;;;;;14.50;13.50;;;;;28.45;23.95;100978.91;4972632;28;46375;-81
2023/06/16 11:46:26;;;;;;;;;14.00;13.00;;;;;28.47;23.94;100976.00;4972352;28;45807;-80
2023/06/16 11:48:53;;;;;;;;;12.50;12.50;;;;;28.35;24.29;100949.72;4972480;28;45737;-80
2023/06/16 11:51:18;;;;;;;;;13.25;12.75;;;;;28.39;24.24;100947.44;4972132;28;45639;-77
2023/06/16 11:53:47;;;;;;;;;14.00;13.25;;;;;28.52;24.77;100971.59;4971814;28;46129;-81
2023/06/16 12:00:01;;;;;;;;;12.25;12.00;;;;;28.59;24.11;100958.09;4965751;28;45695;-78
2023/06/16 12:02:26;;;;;;;;;14.00;13.00;;;;;28.56;23.83;100940.47;4974234;28;45731;-79
2023/06/16 12:04:52;;;;;;;;;14.75;13.00;;;;;28.70;23.23;100954.69;4975157;28;46108;-78
2023/06/16 12:07:18;;;;;;;;;13.25;12.50;;;;;28.73;22.72;100948.88;4975367;28;45683;-78
2023/06/16 12:09:43;;;;;;;;;12.50;11.50;;;;;28.72;23.72;100939.09;4975231;28;45569;-77
2023/06/16 12:12:10;;;;;;;;;12.75;12.75;;;;;28.76;23.67;100938.50;4975154;28;45603;-79
2023/06/16 12:14:36;;;;;;;;;13.25;13.00;;;;;28.82;23.33;100939.47;4975081;28;45639;-77
2023/06/16 12:17:05;;;;;;;;;15.00;13.50;;;;;28.81;23.54;100927.03;4975058;28;45684;-77
2023/06/16 12:19:30;;;;;;;;;16.25;15.75;;;;;28.92;23.38;100933.56;4975143;28;45608;-79
2023/06/16 12:22:00;;;;;;;;;14.00;12.50;;;;;28.96;23.21;100935.59;4974787;28;45697;-78
2023/06/16 12:24:27;;;;;;;;;13.75;13.75;;;;;29.01;22.77;100943.03;4975192;28;45930;-76
2023/06/16 12:26:53;;;;;;;;;12.50;12.00;;;;;29.02;23.59;100933.91;4975040;28;45701;-78
2023/06/16 12:29:20;;;;;;;;;13.00;13.00;;;;;29.03;23.40;100931.00;4975067;28;45762;-78
2023/06/16 12:31:51;;;;;;;;;13.25;13.00;;;;;29.13;23.24;100934.00;4974529;28;46562;-78